createdAt,value
2022-10-11T00:00:43.752Z,87.15
2022-10-11T00:01:44.078Z,87.19
2022-10-11T00:02:44.027Z,87.25
2022-10-11T00:03:44.159Z,87.40
2022-10-11T00:04:44.289Z,87.49
2022-10-11T00:05:44.433Z,87.52
2022-10-11T00:06:44.687Z,87.54
2022-10-11T00:07:44.731Z,87.53
2022-10-11T00:08:44.811Z,87.38
2022-10-11T00:09:44.939Z,87.33
2022-10-11T00:10:45.087Z,87.21
2022-10-11T00:11:45.316Z,87.05
2022-10-11T00:12:45.307Z,86.77
2022-10-11T00:13:45.446Z,86.60
2022-10-11T00:14:45.584Z,86.45
2022-10-11T00:15:45.706Z,86.36
2022-10-11T00:16:45.970Z,86.29
2022-10-11T00:17:45.955Z,86.17
2022-10-11T00:18:46.087Z,86.17
2022-10-11T00:19:46.227Z,86.29
2022-10-11T00:20:46.355Z,86.45
2022-10-11T00:21:46.624Z,86.61
2022-10-11T00:22:46.649Z,86.69
2022-10-11T00:23:46.741Z,86.74
2022-10-11T00:24:46.875Z,86.75
2022-10-11T00:25:47.003Z,86.79
2022-10-11T00:26:47.266Z,86.85
2022-10-11T00:27:47.272Z,86.91
2022-10-11T00:28:47.437Z,86.85
2022-10-11T00:29:47.535Z,86.76
2022-10-11T00:30:47.664Z,86.62
2022-10-11T00:31:47.822Z,86.54
2022-10-11T00:32:47.921Z,86.49
2022-10-11T00:33:48.045Z,86.36
2022-10-11T00:34:48.197Z,86.14
2022-10-11T00:35:48.334Z,86.09
2022-10-11T00:36:48.669Z,86.03
2022-10-11T00:37:48.613Z,86.02
2022-10-11T00:38:48.725Z,86.01
2022-10-11T00:39:48.853Z,86.05
2022-10-11T00:40:48.990Z,86.04
2022-10-11T00:41:49.192Z,86.05
2022-10-11T00:42:49.259Z,86.06
2022-10-11T00:43:49.410Z,86.15
2022-10-11T00:44:49.549Z,86.11
2022-10-11T00:45:49.693Z,86.08
2022-10-11T00:46:53.656Z,86.05
2022-10-11T00:47:50.980Z,86.10
2022-10-11T00:48:50.110Z,86.15
2022-10-11T00:49:50.235Z,86.28
2022-10-11T00:50:50.373Z,86.47
2022-10-11T00:51:50.603Z,86.65
2022-10-11T00:52:50.640Z,86.84
2022-10-11T00:53:50.774Z,86.95
2022-10-11T00:54:50.918Z,86.96
2022-10-11T00:55:50.990Z,86.99
2022-10-11T00:56:51.187Z,86.97
2022-10-11T00:57:51.267Z,86.99
2022-10-11T00:58:51.409Z,87.03
2022-10-11T00:59:51.539Z,87.06
2022-10-11T01:00:51.693Z,87.00
2022-10-11T01:01:51.881Z,86.90
2022-10-11T01:02:51.935Z,86.82
2022-10-11T01:03:52.085Z,86.78
2022-10-11T01:05:11.436Z,86.78
2022-10-11T01:05:53.297Z,86.85
2022-10-11T01:06:52.434Z,86.90
2022-10-11T01:07:52.565Z,87.01
2022-10-11T01:08:52.713Z,87.05
2022-10-11T01:09:52.855Z,87.12
2022-10-11T01:10:53.004Z,87.19
2022-10-11T01:11:53.243Z,87.25
2022-10-11T01:12:53.235Z,87.33
2022-10-11T01:13:53.389Z,87.38
2022-10-11T01:14:53.523Z,87.38
2022-10-11T01:15:53.676Z,87.33
2022-10-11T01:16:53.872Z,87.29
2022-10-11T01:17:53.972Z,87.20
2022-10-11T01:18:54.065Z,87.18
2022-10-11T01:19:54.211Z,87.09
2022-10-11T01:20:54.351Z,86.96
2022-10-11T01:21:54.644Z,86.88
2022-10-11T01:22:54.634Z,86.87
2022-10-11T01:23:54.709Z,86.86
2022-10-11T01:24:54.853Z,86.87
2022-10-11T01:25:55.002Z,86.86
2022-10-11T01:26:55.143Z,86.87
2022-10-11T01:27:55.229Z,86.99
2022-10-11T01:28:55.416Z,87.14
2022-10-11T01:29:55.500Z,87.23
2022-10-11T01:30:55.619Z,87.33
2022-10-11T01:31:55.767Z,87.36
2022-10-11T01:32:55.927Z,87.34
2022-10-11T01:33:56.034Z,87.33
2022-10-11T01:34:56.167Z,87.29
2022-10-11T01:35:56.309Z,87.26
2022-10-11T01:36:56.627Z,87.22
2022-10-11T01:37:56.577Z,87.15
2022-10-11T01:38:56.736Z,87.14
2022-10-11T01:39:56.848Z,87.14
2022-10-11T01:40:56.988Z,87.18
2022-10-11T01:41:57.146Z,87.21
2022-10-11T01:42:57.247Z,87.30
2022-10-11T01:43:57.375Z,87.34
2022-10-11T01:44:57.515Z,87.43
2022-10-11T01:45:57.656Z,87.53
2022-10-11T01:46:57.887Z,87.66
2022-10-11T01:47:57.943Z,87.83
2022-10-11T01:48:58.054Z,87.95
2022-10-11T01:49:58.163Z,88.05
2022-10-11T01:50:58.297Z,88.15
2022-10-11T01:51:58.483Z,88.19
2022-10-11T01:52:58.583Z,88.22
2022-10-11T01:53:58.672Z,88.26
2022-10-11T01:55:09.512Z,88.33
2022-10-11T01:55:59.944Z,88.48
2022-10-11T01:56:59.126Z,88.58
2022-10-11T01:57:59.224Z,88.61
2022-10-11T01:58:59.325Z,88.73
2022-10-11T01:59:59.463Z,88.82
2022-10-11T02:00:59.677Z,88.93
2022-10-11T02:01:59.783Z,88.99
2022-10-11T02:02:59.860Z,89.08
2022-10-11T02:03:59.990Z,89.12
2022-10-11T02:05:00.133Z,89.17
2022-10-11T02:06:00.273Z,89.16
2022-10-11T02:07:00.560Z,89.29
2022-10-11T02:08:00.548Z,89.41
2022-10-11T02:09:04.336Z,89.50
2022-10-11T02:10:01.791Z,89.53
2022-10-11T02:11:00.966Z,89.44
2022-10-11T02:12:01.150Z,89.30
2022-10-11T02:13:01.176Z,89.16
2022-10-11T02:14:01.336Z,89.05
2022-10-11T02:15:01.447Z,88.91
2022-10-11T02:16:01.841Z,88.78
2022-10-11T02:17:01.786Z,88.68
2022-10-11T02:18:01.868Z,88.53
2022-10-11T02:19:01.989Z,88.46
2022-10-11T02:20:02.126Z,88.42
2022-10-11T02:21:02.258Z,88.33
2022-10-11T02:22:02.554Z,88.27
2022-10-11T02:23:02.557Z,88.27
2022-10-11T02:24:03.596Z,88.41
2022-10-11T02:25:02.766Z,88.55
2022-10-11T02:26:03.312Z,88.72
2022-10-11T02:27:03.075Z,88.88
2022-10-11T02:28:03.185Z,88.95
2022-10-11T02:29:03.310Z,89.01
2022-10-11T02:30:03.383Z,89.10
2022-10-11T02:31:03.515Z,89.22
2022-10-11T02:32:03.738Z,89.32
2022-10-11T02:33:03.774Z,89.38
2022-10-11T02:34:03.915Z,89.41
2022-10-11T02:35:04.042Z,89.35
2022-10-11T02:36:04.401Z,89.27
2022-10-11T02:37:04.640Z,89.18
2022-10-11T02:38:04.454Z,89.06
2022-10-11T02:39:04.641Z,88.99
2022-10-11T02:40:04.730Z,88.92
2022-10-11T02:41:04.871Z,88.90
2022-10-11T02:42:05.137Z,88.85
2022-10-11T02:43:05.249Z,88.75
2022-10-11T02:44:05.280Z,88.65
2022-10-11T02:45:05.435Z,88.60
2022-10-11T02:46:05.952Z,88.66
2022-10-11T02:47:05.761Z,88.72
2022-10-11T02:48:05.852Z,88.77
2022-10-11T02:49:05.941Z,88.85
2022-10-11T02:50:06.079Z,88.95
2022-10-11T02:51:06.207Z,89.03
2022-10-11T02:52:06.459Z,89.14
2022-10-11T02:53:06.458Z,89.20
2022-10-11T02:54:06.545Z,89.23
2022-10-11T02:55:06.686Z,89.20
2022-10-11T02:56:07.205Z,89.15
2022-10-11T02:57:07.118Z,89.10
2022-10-11T02:58:07.098Z,89.07
2022-10-11T02:59:07.228Z,89.04
2022-10-11T03:00:07.361Z,88.99
2022-10-11T03:01:07.679Z,88.95
2022-10-11T03:02:07.721Z,88.90
2022-10-11T03:03:07.755Z,88.89
2022-10-11T03:04:07.875Z,88.94
2022-10-11T03:05:08.023Z,88.99
2022-10-11T03:06:08.483Z,89.03
2022-10-11T03:07:08.416Z,89.03
2022-10-11T03:08:08.466Z,89.07
2022-10-11T03:09:08.494Z,89.04
2022-10-11T03:10:08.615Z,89.05
2022-10-11T03:11:08.765Z,89.07
2022-10-11T03:12:09.002Z,89.09
2022-10-11T03:13:09.213Z,89.09
2022-10-11T03:14:09.162Z,89.08
2022-10-11T03:15:09.305Z,89.08
2022-10-11T03:16:09.740Z,89.03
2022-10-11T03:17:34.639Z,89.03
2022-10-11T03:18:10.705Z,89.06
2022-10-11T03:19:09.835Z,89.09
2022-10-11T03:20:09.984Z,89.13
2022-10-11T03:21:10.073Z,89.17
2022-10-11T03:22:10.294Z,89.23
2022-10-11T03:23:10.421Z,89.28
2022-10-11T03:24:10.452Z,89.32
2022-10-11T03:25:10.573Z,89.34
2022-10-11T03:26:10.700Z,89.35
2022-10-11T03:27:10.895Z,89.34
2022-10-11T03:28:11.039Z,89.33
2022-10-11T03:29:11.090Z,89.35
2022-10-11T03:30:14.123Z,89.36
2022-10-11T03:31:12.358Z,89.37
2022-10-11T03:32:11.540Z,89.35
2022-10-11T03:33:11.631Z,89.26
2022-10-11T03:34:11.771Z,89.24
2022-10-11T03:35:11.927Z,89.26
2022-10-11T03:36:12.061Z,89.31
2022-10-11T03:37:12.268Z,89.33
2022-10-11T03:38:13.033Z,89.31
2022-10-11T03:39:12.421Z,89.25
2022-10-11T03:40:12.547Z,89.15
2022-10-11T03:41:12.706Z,89.09
2022-10-11T03:42:12.867Z,89.04
2022-10-11T03:43:12.968Z,88.96
2022-10-11T03:44:13.038Z,88.85
2022-10-11T03:45:13.166Z,88.68
2022-10-11T03:46:13.287Z,88.63
2022-10-11T03:47:13.495Z,88.63
2022-10-11T03:48:13.591Z,88.66
2022-10-11T03:49:13.736Z,88.72
2022-10-11T03:50:13.867Z,88.78
2022-10-11T03:51:13.994Z,88.82
2022-10-11T03:52:14.235Z,88.83
2022-10-11T03:53:14.264Z,88.97
2022-10-11T03:54:14.414Z,89.07
2022-10-11T03:55:14.533Z,89.12
2022-10-11T03:56:15.276Z,89.27
2022-10-11T03:57:14.827Z,89.42
2022-10-11T03:58:14.933Z,89.54
2022-10-11T03:59:15.032Z,89.60
2022-10-11T04:00:15.125Z,89.67
2022-10-11T04:01:15.302Z,89.69
2022-10-11T04:02:15.440Z,89.68
2022-10-11T04:03:15.503Z,89.65
2022-10-11T04:04:15.597Z,89.61
2022-10-11T04:05:15.731Z,89.60
2022-10-11T04:06:15.879Z,89.62
2022-10-11T04:07:16.618Z,89.60
2022-10-11T04:08:16.144Z,89.56
2022-10-11T04:09:16.240Z,89.50
2022-10-11T04:10:16.390Z,89.47
2022-10-11T04:11:16.518Z,89.48
2022-10-11T04:12:16.774Z,89.47
2022-10-11T04:13:16.788Z,89.51
2022-10-11T04:14:16.908Z,89.52
2022-10-11T04:15:17.058Z,89.40
2022-10-11T04:16:17.198Z,89.31
2022-10-11T04:17:17.400Z,89.27
2022-10-11T04:18:17.488Z,89.27
2022-10-11T04:19:17.618Z,89.31
2022-10-11T04:20:17.750Z,89.33
2022-10-11T04:21:17.878Z,89.29
2022-10-11T04:22:18.017Z,89.31
2022-10-11T04:23:18.148Z,89.37
2022-10-11T04:24:18.277Z,89.43
2022-10-11T04:25:18.425Z,89.51
2022-10-11T04:26:18.564Z,89.57
2022-10-11T04:27:18.729Z,89.64
2022-10-11T04:28:18.869Z,89.72
2022-10-11T04:29:18.937Z,89.79
2022-10-11T04:30:19.096Z,89.85
2022-10-11T04:31:19.305Z,89.91
2022-10-11T04:32:19.340Z,89.96
2022-10-11T04:33:19.492Z,89.99
2022-10-11T04:34:19.594Z,90.04
2022-10-11T04:35:19.702Z,90.07
2022-10-11T04:36:19.862Z,90.09
2022-10-11T04:37:19.963Z,90.14
2022-10-11T04:38:20.113Z,90.20
2022-10-11T04:39:20.264Z,90.31
2022-10-11T04:40:20.513Z,90.40
2022-10-11T04:41:20.614Z,90.52
2022-10-11T04:42:20.621Z,90.58
2022-10-11T04:43:20.752Z,90.69
2022-10-11T04:44:20.901Z,90.75
2022-10-11T04:45:21.068Z,90.76
2022-10-11T04:46:21.220Z,90.80
2022-10-11T04:47:21.300Z,90.80
2022-10-11T04:48:21.450Z,90.81
2022-10-11T04:49:21.591Z,90.79
2022-10-11T04:50:21.720Z,90.74
2022-10-11T04:51:21.843Z,90.71
2022-10-11T04:52:25.525Z,90.67
2022-10-11T04:53:22.070Z,90.63
2022-10-11T04:54:22.198Z,90.59
2022-10-11T04:55:22.349Z,90.56
2022-10-11T04:56:22.517Z,90.50
2022-10-11T04:57:22.569Z,90.50
2022-10-11T04:58:22.733Z,90.47
2022-10-11T04:59:22.849Z,90.45
2022-10-11T05:00:22.981Z,90.39
2022-10-11T05:01:23.654Z,90.30
2022-10-11T05:02:23.324Z,90.24
2022-10-11T05:03:23.415Z,90.21
2022-10-11T05:04:23.558Z,90.17
2022-10-11T05:05:23.655Z,90.13
2022-10-11T05:06:23.845Z,90.11
2022-10-11T05:07:23.924Z,90.09
2022-10-11T05:08:24.084Z,90.11
2022-10-11T05:09:24.188Z,90.17
2022-10-11T05:10:24.268Z,90.21
2022-10-11T05:11:24.456Z,90.18
2022-10-11T05:12:24.525Z,90.10
2022-10-11T05:13:24.675Z,90.01
2022-10-11T05:14:24.773Z,89.95
2022-10-11T05:15:24.913Z,89.90
2022-10-11T05:16:25.076Z,89.84
2022-10-11T05:17:25.204Z,89.78
2022-10-11T05:18:25.311Z,89.74
2022-10-11T05:19:25.457Z,89.74
2022-10-11T05:20:25.603Z,89.68
2022-10-11T05:21:25.784Z,89.61
2022-10-11T05:22:25.859Z,89.48
2022-10-11T05:23:26.022Z,89.34
2022-10-11T05:24:26.109Z,89.25
2022-10-11T05:25:26.282Z,89.23
2022-10-11T05:26:26.409Z,89.19
2022-10-11T05:27:26.487Z,89.12
2022-10-11T05:28:26.707Z,88.98
2022-10-11T05:29:26.758Z,88.84
2022-10-11T05:30:26.893Z,88.78
2022-10-11T05:31:27.047Z,88.77
2022-10-11T05:32:28.100Z,88.80
2022-10-11T05:33:27.278Z,88.84
2022-10-11T05:34:27.443Z,88.89
2022-10-11T05:35:27.507Z,88.91
2022-10-11T05:36:27.694Z,88.99
2022-10-11T05:37:27.799Z,89.02
2022-10-11T05:38:27.908Z,89.06
2022-10-11T05:39:27.976Z,89.11
2022-10-11T05:40:28.107Z,89.10
2022-10-11T05:41:28.276Z,89.15
2022-10-11T05:42:28.356Z,89.17
2022-10-11T05:43:28.495Z,89.16
2022-10-11T05:44:28.626Z,89.16
2022-10-11T05:45:28.767Z,89.17
2022-10-11T05:46:28.943Z,89.16
2022-10-11T05:47:29.045Z,89.15
2022-10-11T05:48:29.199Z,89.20
2022-10-11T05:49:29.333Z,89.35
2022-10-11T05:50:29.443Z,89.47
2022-10-11T05:51:29.609Z,89.54
2022-10-11T05:52:29.699Z,89.60
2022-10-11T05:53:29.822Z,89.63
2022-10-11T05:54:29.971Z,89.66
2022-10-11T05:55:30.112Z,89.66
2022-10-11T05:56:30.281Z,89.67
2022-10-11T05:57:30.372Z,89.66
2022-10-11T05:58:30.502Z,89.64
2022-10-11T05:59:30.641Z,89.64
2022-10-11T06:00:30.793Z,89.63
2022-10-11T06:01:31.056Z,89.63
2022-10-11T06:02:31.081Z,89.62
2022-10-11T06:03:31.188Z,89.65
2022-10-11T06:04:31.319Z,89.72
2022-10-11T06:05:31.462Z,89.77
2022-10-11T06:06:31.614Z,89.82
2022-10-11T06:07:31.699Z,89.88
2022-10-11T06:08:31.840Z,89.90
2022-10-11T06:09:31.971Z,89.94
2022-10-11T06:10:32.121Z,89.99
2022-10-11T06:11:32.238Z,90.03
2022-10-11T06:12:32.318Z,90.09
2022-10-11T06:13:32.455Z,90.18
2022-10-11T06:14:32.589Z,90.24
2022-10-11T06:15:32.717Z,90.31
2022-10-11T06:16:32.870Z,90.38
2022-10-11T06:17:32.977Z,90.38
2022-10-11T06:18:33.106Z,90.40
2022-10-11T06:19:33.253Z,90.45
2022-10-11T06:20:33.384Z,90.48
2022-10-11T06:21:33.556Z,90.46
2022-10-11T06:22:33.652Z,90.38
2022-10-11T06:23:33.784Z,90.25
2022-10-11T06:24:33.917Z,90.20
2022-10-11T06:25:34.120Z,90.22
2022-10-11T06:26:34.204Z,90.28
2022-10-11T06:27:34.374Z,90.32
2022-10-11T06:28:34.544Z,90.36
2022-10-11T06:29:34.572Z,90.36
2022-10-11T06:30:34.767Z,90.35
2022-10-11T06:31:34.839Z,90.35
2022-10-11T06:32:34.991Z,90.34
2022-10-11T06:33:35.112Z,90.40
2022-10-11T06:34:35.213Z,90.41
2022-10-11T06:35:35.413Z,90.37
2022-10-11T06:36:35.498Z,90.32
2022-10-11T06:37:35.639Z,90.31
2022-10-11T06:38:35.772Z,90.26
2022-10-11T06:39:35.940Z,90.27
2022-10-11T06:40:36.128Z,90.33
2022-10-11T06:41:36.181Z,90.41
2022-10-11T06:42:36.289Z,90.47
2022-10-11T06:43:36.388Z,90.51
2022-10-11T06:44:36.469Z,90.51
2022-10-11T06:45:36.726Z,90.49
2022-10-11T06:46:36.707Z,90.49
2022-10-11T06:47:36.858Z,90.54
2022-10-11T06:48:36.996Z,90.51
2022-10-11T06:49:37.141Z,90.43
2022-10-11T06:50:58.481Z,90.39
2022-10-11T06:51:38.437Z,90.35
2022-10-11T06:52:37.557Z,90.16
2022-10-11T06:53:37.738Z,89.99
2022-10-11T06:54:42.524Z,89.87
2022-10-11T06:55:38.945Z,89.75
2022-10-11T06:56:38.064Z,89.60
2022-10-11T06:57:38.202Z,89.40
2022-10-11T06:58:38.330Z,89.27
2022-10-11T06:59:38.461Z,89.10
2022-10-11T07:00:38.657Z,88.73
2022-10-11T07:01:38.777Z,88.29
2022-10-11T07:02:38.874Z,88.06
2022-10-11T07:03:39.012Z,87.79
2022-10-11T07:04:39.166Z,87.45
2022-10-11T07:05:39.360Z,87.01
2022-10-11T07:06:39.373Z,86.88
2022-10-11T07:07:39.492Z,86.54
2022-10-11T07:08:39.631Z,86.15
2022-10-11T07:09:39.774Z,85.82
2022-10-11T07:10:39.929Z,85.18
2022-10-11T07:11:40.036Z,84.94
2022-10-11T07:12:40.161Z,84.61
2022-10-11T07:13:40.298Z,84.33
2022-10-11T07:14:40.430Z,84.35
2022-10-11T07:15:40.610Z,84.18
2022-10-11T07:16:40.712Z,83.54
2022-10-11T07:17:40.838Z,82.86
2022-10-11T07:18:41.005Z,82.26
2022-10-11T07:19:41.122Z,82.37
2022-10-11T07:20:41.356Z,82.18
2022-10-11T07:21:41.388Z,82.12
2022-10-11T07:22:41.487Z,81.98
2022-10-11T07:23:41.680Z,81.78
2022-10-11T07:24:41.759Z,81.51
2022-10-11T07:25:42.129Z,81.17
2022-10-11T07:26:42.038Z,81.14
2022-10-11T07:27:42.182Z,81.07
2022-10-11T07:28:42.379Z,81.39
2022-10-11T07:29:42.487Z,81.58
2022-10-11T07:30:42.567Z,81.67
2022-10-11T07:31:42.788Z,81.97
2022-10-11T07:32:42.895Z,82.40
2022-10-11T07:33:42.983Z,82.72
2022-10-11T07:34:43.157Z,83.16
2022-10-11T07:35:48.092Z,83.23
2022-10-11T07:36:44.373Z,83.55
2022-10-11T07:37:44.024Z,83.76
2022-10-11T07:38:43.681Z,83.95
2022-10-11T07:39:43.805Z,83.54
2022-10-11T07:40:43.882Z,83.00
2022-10-11T07:41:46.077Z,83.10
2022-10-11T07:42:44.224Z,82.84
2022-10-11T07:43:44.312Z,82.24
2022-10-11T07:44:44.491Z,81.93
2022-10-11T07:45:44.572Z,81.52
2022-10-11T07:46:44.712Z,80.42
2022-10-11T07:47:44.844Z,80.41
2022-10-11T07:48:45.003Z,79.76
2022-10-11T07:49:45.146Z,79.17
2022-10-11T07:50:45.250Z,79.14
2022-10-11T07:51:45.353Z,78.30
2022-10-11T07:52:45.462Z,78.12
2022-10-11T07:53:45.562Z,77.13
2022-10-11T07:54:45.755Z,76.62
2022-10-11T07:55:45.851Z,76.61
2022-10-11T07:56:45.980Z,75.71
2022-10-11T07:57:46.095Z,75.75
2022-10-11T07:58:46.200Z,74.84
2022-10-11T07:59:50.126Z,74.86
2022-10-11T08:00:46.462Z,74.94
2022-10-11T08:01:46.715Z,74.40
2022-10-11T08:02:46.713Z,74.50
2022-10-11T08:03:46.801Z,74.33
2022-10-11T08:04:46.998Z,74.40
2022-10-11T08:05:46.989Z,74.63
2022-10-11T08:06:51.110Z,74.60
2022-10-11T08:07:48.221Z,74.49
2022-10-11T08:08:47.308Z,74.56
2022-10-11T08:09:47.506Z,74.45
2022-10-11T08:10:47.600Z,74.16
2022-10-11T08:11:47.688Z,74.46
2022-10-11T08:12:47.810Z,74.45
2022-10-11T08:13:47.927Z,74.97
2022-10-11T08:14:48.049Z,75.03
2022-10-11T08:15:48.127Z,74.92
2022-10-11T08:16:48.267Z,74.97
2022-10-11T08:17:48.417Z,74.84
2022-10-11T08:18:48.547Z,74.15
2022-10-11T08:19:48.667Z,73.75
2022-10-11T08:20:48.769Z,73.29
2022-10-11T08:21:48.896Z,73.59
2022-10-11T08:22:49.015Z,73.05
2022-10-11T08:23:49.144Z,72.07
2022-10-11T08:24:49.311Z,72.70
2022-10-11T08:25:49.359Z,73.11
2022-10-11T08:26:49.474Z,70.97
2022-10-11T08:27:49.625Z,71.94
2022-10-11T08:28:49.813Z,72.30
2022-10-11T08:29:49.903Z,72.91
2022-10-11T08:30:50.007Z,71.95
2022-10-11T08:31:50.104Z,72.22
2022-10-11T08:32:50.260Z,71.45
2022-10-11T08:33:50.353Z,71.73
2022-10-11T08:34:50.474Z,70.95
2022-10-11T08:35:50.599Z,71.79
2022-10-11T08:36:50.712Z,70.59
2022-10-11T08:37:50.803Z,69.12
2022-10-11T08:38:50.966Z,69.25
2022-10-11T08:39:51.025Z,68.39
2022-10-11T08:40:51.130Z,67.54
2022-10-11T08:41:51.242Z,67.27
2022-10-11T08:42:51.364Z,69.25
2022-10-11T08:43:51.558Z,68.42
2022-10-11T08:45:10.189Z,68.30
2022-10-11T08:45:52.757Z,69.40
2022-10-11T08:46:53.218Z,69.80
2022-10-11T08:47:52.023Z,69.65
2022-10-11T08:48:52.182Z,67.40
2022-10-11T08:49:52.241Z,68.11
2022-10-11T08:50:52.372Z,67.33
2022-10-11T08:51:52.472Z,68.47
2022-10-11T08:52:52.624Z,67.15
2022-10-11T08:53:52.895Z,67.71
2022-10-11T08:54:52.872Z,68.51
2022-10-11T08:55:52.973Z,68.73
2022-10-11T08:56:53.092Z,68.86
2022-10-11T08:57:53.305Z,69.55
2022-10-11T08:58:53.441Z,68.96
2022-10-11T08:59:53.561Z,66.35
2022-10-11T09:00:53.637Z,65.34
2022-10-11T09:01:53.833Z,65.06
2022-10-11T09:03:08.068Z,65.43
2022-10-11T09:03:55.061Z,67.11
2022-10-11T09:04:54.121Z,67.68
2022-10-11T09:05:54.220Z,66.92
2022-10-11T09:06:54.319Z,66.82
2022-10-11T09:07:54.511Z,65.68
2022-10-11T09:08:54.651Z,65.74
2022-10-11T09:09:54.795Z,65.83
2022-10-11T09:10:54.881Z,65.25
2022-10-11T09:11:55.031Z,66.07
2022-10-11T09:12:55.198Z,64.82
2022-10-11T09:13:55.408Z,65.54
2022-10-11T09:14:55.410Z,65.43
2022-10-11T09:15:55.522Z,65.02
2022-10-11T09:16:55.613Z,63.23
2022-10-11T09:17:55.778Z,64.12
2022-10-11T09:18:55.921Z,66.19
2022-10-11T09:19:56.042Z,65.38
2022-10-11T09:20:56.150Z,65.11
2022-10-11T09:21:56.250Z,65.26
2022-10-11T09:22:56.409Z,63.82
2022-10-11T09:23:56.560Z,63.26
2022-10-11T09:24:56.627Z,63.70
2022-10-11T09:25:56.729Z,66.15
2022-10-11T09:26:56.828Z,63.95
2022-10-11T09:28:02.837Z,64.85
2022-10-11T09:29:01.129Z,62.67
2022-10-11T09:29:57.259Z,63.69
2022-10-11T09:30:57.409Z,62.31
2022-10-11T09:31:57.509Z,62.69
2022-10-11T09:32:57.649Z,62.68
2022-10-11T09:33:57.817Z,62.58
2022-10-11T09:34:57.898Z,62.67
2022-10-11T09:35:57.989Z,63.08
2022-10-11T09:36:58.129Z,63.89
2022-10-11T09:37:58.280Z,61.93
2022-10-11T09:39:00.892Z,62.33
2022-10-11T09:39:58.606Z,62.00
2022-10-11T09:40:58.714Z,61.76
2022-10-11T09:41:58.810Z,62.63
2022-10-11T09:42:58.959Z,63.43
2022-10-11T09:43:59.163Z,65.25
2022-10-11T09:44:59.209Z,64.95
2022-10-11T09:45:59.310Z,66.30
2022-10-11T09:46:59.421Z,65.12
2022-10-11T09:47:59.508Z,64.14
2022-10-11T09:48:59.709Z,64.15
2022-10-11T09:49:59.767Z,63.81
2022-10-11T09:50:59.886Z,63.53
2022-10-11T09:51:59.998Z,63.05
2022-10-11T09:53:00.111Z,62.16
2022-10-11T09:54:00.279Z,62.37
2022-10-11T09:55:00.411Z,61.50
2022-10-11T09:56:00.525Z,61.75
2022-10-11T09:57:00.597Z,61.73
2022-10-11T09:58:00.717Z,61.92
2022-10-11T09:59:00.909Z,60.71
2022-10-11T10:00:00.959Z,61.23
2022-10-11T10:01:06.725Z,61.83
2022-10-11T10:02:02.254Z,61.00
2022-10-11T10:03:01.306Z,61.57
2022-10-11T10:04:01.449Z,61.62
2022-10-11T10:05:01.565Z,63.15
2022-10-11T10:06:01.695Z,65.66
2022-10-11T10:07:01.785Z,66.93
2022-10-11T10:08:04.783Z,64.05
2022-10-11T10:09:02.126Z,61.54
2022-10-11T10:10:02.222Z,60.45
2022-10-11T10:11:02.266Z,60.78
2022-10-11T10:12:02.381Z,61.64
2022-10-11T10:13:02.494Z,60.42
2022-10-11T10:14:02.685Z,61.90
2022-10-11T10:15:02.761Z,59.85
2022-10-11T10:16:03.330Z,59.15
2022-10-11T10:17:02.962Z,59.95
2022-10-11T10:18:03.064Z,59.31
2022-10-11T10:19:03.305Z,59.46
2022-10-11T10:20:03.446Z,60.37
2022-10-11T10:21:03.428Z,59.92
2022-10-11T10:22:03.564Z,59.82
2022-10-11T10:23:03.686Z,60.74
2022-10-11T10:24:04.022Z,61.55
2022-10-11T10:25:03.923Z,61.60
2022-10-11T10:26:04.538Z,61.88
2022-10-11T10:27:04.162Z,61.60
2022-10-11T10:28:04.315Z,61.64
2022-10-11T10:29:04.513Z,61.44
2022-10-11T10:30:04.543Z,62.58
2022-10-11T10:31:04.623Z,61.70
2022-10-11T10:32:20.000Z,61.21
2022-10-11T10:33:05.866Z,61.58
2022-10-11T10:34:05.106Z,62.35
2022-10-11T10:35:05.159Z,62.43
2022-10-11T10:36:05.359Z,62.86
2022-10-11T10:37:05.275Z,63.31
2022-10-11T10:38:05.428Z,63.40
2022-10-11T10:39:05.648Z,63.45
2022-10-11T10:40:05.639Z,61.41
2022-10-11T10:41:05.735Z,63.31
2022-10-11T10:42:05.917Z,62.32
2022-10-11T10:43:06.036Z,60.61
2022-10-11T10:44:06.269Z,60.71
2022-10-11T10:45:11.181Z,59.13
2022-10-11T10:46:07.783Z,60.20
2022-10-11T10:47:06.573Z,60.30
2022-10-11T10:48:06.661Z,58.41
2022-10-11T10:50:07.939Z,58.72
2022-10-11T10:51:10.338Z,58.45
2022-10-11T10:52:07.184Z,58.09
2022-10-11T10:53:07.294Z,59.44
2022-10-11T10:54:07.435Z,59.17
2022-10-11T10:55:07.542Z,58.74
2022-10-11T10:56:08.073Z,58.72
2022-10-11T10:57:07.783Z,58.57
2022-10-11T10:58:07.898Z,60.78
2022-10-11T10:59:08.058Z,59.26
2022-10-11T11:00:08.189Z,58.63
2022-10-11T11:01:08.318Z,57.68
2022-10-11T11:02:28.163Z,58.18
2022-10-11T11:03:09.590Z,58.70
2022-10-11T11:04:08.799Z,56.64
2022-10-11T11:05:08.783Z,56.31
2022-10-11T11:06:09.293Z,56.21
2022-10-11T11:07:09.048Z,54.34
2022-10-11T11:08:09.161Z,53.50
2022-10-11T11:09:09.366Z,52.42
2022-10-11T11:10:09.377Z,53.77
2022-10-11T11:11:09.468Z,54.89
2022-10-11T11:12:09.641Z,54.54
2022-10-11T11:13:09.733Z,56.34
2022-10-11T11:14:09.907Z,54.85
2022-10-11T11:15:10.008Z,53.35
2022-10-11T11:16:10.081Z,55.19
2022-10-11T11:17:10.175Z,52.44
2022-10-11T11:18:10.338Z,52.03
2022-10-11T11:19:10.566Z,52.49
2022-10-11T11:20:10.608Z,53.72
2022-10-11T11:21:10.776Z,54.46
2022-10-11T11:22:10.897Z,54.73
2022-10-11T11:23:11.011Z,53.70
2022-10-11T11:24:11.157Z,53.07
2022-10-11T11:25:11.247Z,53.28
2022-10-11T11:26:11.437Z,54.54
2022-10-11T11:27:11.579Z,55.94
2022-10-11T11:28:11.706Z,55.52
2022-10-11T11:29:11.940Z,54.71
2022-10-11T11:30:11.930Z,55.55
2022-10-11T11:31:12.018Z,52.68
2022-10-11T11:32:12.656Z,52.83
2022-10-11T11:33:12.217Z,52.15
2022-10-11T11:34:12.546Z,53.34
2022-10-11T11:35:12.486Z,55.12
2022-10-11T11:36:12.604Z,56.71
2022-10-11T11:37:12.736Z,56.62
2022-10-11T11:38:12.847Z,54.61
2022-10-11T11:39:12.987Z,55.34
2022-10-11T11:40:13.154Z,54.38
2022-10-11T11:41:13.197Z,53.85
2022-10-11T11:42:13.356Z,54.63
2022-10-11T11:43:13.434Z,54.40
2022-10-11T11:44:14.579Z,54.08
2022-10-11T11:45:13.666Z,55.32
2022-10-11T11:46:13.765Z,54.14
2022-10-11T11:47:13.939Z,53.78
2022-10-11T11:48:14.035Z,52.14
2022-10-11T11:49:14.234Z,52.45
2022-10-11T11:50:14.393Z,53.60
2022-10-11T11:51:14.434Z,52.87
2022-10-11T11:52:14.543Z,54.81
2022-10-11T11:53:14.663Z,54.56
2022-10-11T11:54:14.830Z,54.45
2022-10-11T11:55:14.933Z,53.26
2022-10-11T11:56:15.012Z,52.29
2022-10-11T11:57:15.123Z,52.39
2022-10-11T11:58:15.262Z,55.41
2022-10-11T11:59:15.413Z,55.07
2022-10-11T12:00:15.475Z,55.52
2022-10-11T12:01:15.642Z,56.23
2022-10-11T12:02:15.826Z,56.87
2022-10-11T12:03:15.873Z,55.85
2022-10-11T12:04:16.058Z,55.66
2022-10-11T12:05:16.211Z,54.26
2022-10-11T12:06:16.222Z,54.19
2022-10-11T12:07:17.483Z,55.42
2022-10-11T12:08:16.469Z,53.27
2022-10-11T12:09:16.652Z,52.66
2022-10-11T12:10:16.730Z,52.89
2022-10-11T12:11:16.825Z,52.89
2022-10-11T12:12:16.945Z,54.52
2022-10-11T12:13:17.085Z,55.62
2022-10-11T12:14:17.359Z,54.89
2022-10-11T12:15:17.335Z,52.88
2022-10-11T12:16:17.461Z,50.54
2022-10-11T12:17:17.554Z,50.98
2022-10-11T12:18:17.711Z,51.08
2022-10-11T12:19:17.861Z,51.11
2022-10-11T12:20:17.909Z,50.92
2022-10-11T12:21:18.038Z,51.72
2022-10-11T12:22:18.163Z,51.36
2022-10-11T12:23:20.076Z,53.74
2022-10-11T12:24:18.425Z,52.98
2022-10-11T12:25:18.891Z,52.03
2022-10-11T12:26:18.597Z,50.78
2022-10-11T12:27:18.707Z,53.17
2022-10-11T12:28:18.861Z,51.97
2022-10-11T12:29:19.214Z,51.45
2022-10-11T12:30:19.077Z,52.81
2022-10-11T12:31:19.243Z,51.91
2022-10-11T12:32:19.379Z,51.71
2022-10-11T12:33:19.447Z,51.32
2022-10-11T12:34:20.590Z,51.86
2022-10-11T12:35:19.745Z,52.52
2022-10-11T12:36:19.856Z,53.27
2022-10-11T12:37:19.971Z,53.85
2022-10-11T12:38:20.076Z,52.91
2022-10-11T12:39:20.346Z,52.75
2022-10-11T12:40:20.375Z,53.04
2022-10-11T12:41:20.416Z,53.35
2022-10-11T12:42:20.577Z,55.85
2022-10-11T12:43:20.686Z,54.59
2022-10-11T12:44:20.913Z,55.01
2022-10-11T12:45:20.885Z,54.25
2022-10-11T12:46:21.007Z,54.40
2022-10-11T12:47:21.139Z,54.52
2022-10-11T12:48:21.235Z,53.78
2022-10-11T12:49:21.480Z,54.34
2022-10-11T12:50:21.524Z,54.02
2022-10-11T12:51:21.605Z,53.66
2022-10-11T12:52:21.728Z,54.03
2022-10-11T12:53:21.806Z,53.09
2022-10-11T12:54:27.381Z,53.74
2022-10-11T12:55:23.089Z,54.96